AirNav   Pilot Hours Calculator
 
 483 users online  

SC23 Eagles Nest-Fairview Airpark
Pelion, South Carolina, USA

GOING TO PELION?


FAA INFORMATION EFFECTIVE 22 APRIL 2021

Location

FAA Identifier: SC23
Lat/Long: 33-45-50.5380N 081-21-31.3660W
33-45.842300N 081-21.522767W
33.7640383,-81.3587128
(estimated)
Elevation: 460 ft. / 140 m (estimated)
Variation: 04W (1985)
From city: 6 miles W of PELION, SC
Time zone: UTC -4 (UTC -5 during Standard Time)
Zip code: 29070

Airport Operations

Airport use: Private use. Permission required prior to landing
Activation date: 08/1966
Control tower: no
ARTCC: JACKSONVILLE CENTER
FSS: ANDERSON FLIGHT SERVICE STATION
Attendance: CONTINUOUS
Wind indicator: yes
Segmented circle: no

Airport Communications

WX ASOS at CAE (16 nm NE): 120.15 (803-822-4168)
WX AWOS-3 at AIK (18 nm SW): 118.025 (803-643-8664)

Nearby radio navigation aids

VOR radial/distance  VOR name  Freq  Var
CAEr252/16.2COLUMBIA VORTAC114.7002W
MMTr259/29.3MC ENTIRE VORTAC113.2008W

 
NDB name  Hdg/Dist  Freq  Var  ID
MURRY212/13.436207WCA -.-. .-
AIKEN073/17.334706WAIK .- .. -.-
ENOREE164/35.627807WEOE . --- .
EMORY064/36.738504WEMR . -- .-.

Airport Services

Airframe service: NONE
Powerplant service: NONE

Runway Information

Runway 2/20

Dimensions: 2700 x 180 ft. / 823 x 55 m
Surface: turf
RUNWAY 2  RUNWAY 20
Traffic pattern: leftleft
Obstructions: treestrees

Runway 3/21

Dimensions: 1500 x 200 ft. / 457 x 61 m
Surface: turf
RUNWAY 3  RUNWAY 21
Traffic pattern: leftleft
Obstructions: treestrees

Airport Ownership and Management from official FAA records

Ownership: Privately-owned
Owner: KAREN MAGILL
2724 KILLIAN ROAD
EDGEMOOR, SC 29712
Phone 704-941-9915
Manager: KAREN MAGILL
4577 CALKS FERRY RD
LEESVILLE, SC 29070
Phone 704-941-9915

Airport Operational Statistics

Aircraft based on the field: 2
Single engine airplanes: 2
    

Additional Remarks

FOR CD CTC COLUMBIA APCH AT 803-822-5242 OR 803-822-5040.

Instrument Procedures

There are no published instrument procedures at SC23.

Some nearby airports with instrument procedures:

6J0 - Lexington County Airport (6 nm E)
KCAE - Columbia Metro Airport (16 nm NE)
KXNO - North Air Force Auxiliary Field (17 nm SE)
KAIK - Aiken Regional Airport (18 nm SW)
KCUB - Jim Hamilton L B Owens Airport (22 nm NE)
 
Loc | Ops | Rwys | IFR | FBO | Links
Com | Nav | Svcs | Stats | Notes
Area around SC23 (Eagles Nest-Fairview Airpark)
 
Road maps at: MapQuest Bing Google
 
Aerial photo
No photo
 
Sectional chart

 
Airport distance calculator
Flying to Eagles Nest-Fairview Airpark? Find the distance to fly.

From to SC23

Sunrise and sunset
Times for 12-May-2021
 Local
(UTC-4)
 Zulu
(UTC)
Morning civil twilight06:0010:00
Sunrise06:2810:28
Sunset20:1600:16
Evening civil twilight20:4300:43

Current date and time
Zulu (UTC)  12-May-2021 05:57:52
Local (UTC-4)  12-May-2021 01:57:52
 
METAR
KCAE 
16nm NE 
120456Z 08008KT 10SM BKN012 21/15 A3007 RMK AO2 SLP179 T02110150 402670156 $
KXNO 
17nm SE 
120456Z AUTO M M M M M M RMK AO2 SLPNO RVRNO PNO FZRANO CHINO RWY05 $
KAIK 
18nm SW 
120555Z AUTO 08004KT 10SM SCT060 SCT080 OVC110 19/17 A3007 RMK AO2 LTG DSNT SE AND S T01920166 10230 20191
KCUB 
22nm NE 
120553Z AUTO 00000KT 10SM BKN011 21/16 A3007 RMK AO2 SLP182 T02110161 10222 20206 58004
KMMT 
30nm E 
120526Z AUTO 08004KT 10SM OVC008 20/18 A3007 RMK AO2 SLP184 $
KBNL 
30nm S 
120555Z AUTO 00000KT 5SM VCTS RA FEW012 BKN022 OVC070 20/19 A3006 RMK AO2 LTG DSNT ALQDS P0001
KOGB 
31nm SE 
120553Z AUTO 12005KT 10SM BKN024 BKN060 OVC120 20/18 A3006 RMK AO2 SLP177 T02000183 10228 20200 55005
TAF
KCAE 
16nm NE 
120239Z 1203/1224 VRB04KT P6SM BKN120 FM120700 VRB03KT P6SM VCSH OVC015 FM120900 04010KT 4SM -RA OVC007 FM122100 04008KT P6SM OVC025
NOTAMs
Click for the latest NOTAMs
NOTAMs are issued by the DoD/FAA and will open in a separate window not controlled by AirNav.

 

 
 

Would you like to see your business listed on this page?

 If your business provides an interesting product or service to pilots, flight crews, aircraft, or users of the Eagles Nest-Fairview Airpark, you should consider listing it here.  To start the listing process, click on the button below
 
Add a business
 

Other Pages about Eagles Nest-Fairview Airpark

Update a link
 
Copyright © AirNav, LLC. All rights reserved. Privacy Policy  Contact